Time;durP1;ratioP1;P1;durP2;ratioP2;P2;SDS_P1;SDS_P2;PMS_P1;PMS_P2;Temp;Humidity;BMP_temperature;BMP_pressure;BME280_temperature;BME280_humidity;BME280_pressure;Samples;Min_cycle;Max_cycle;Signal;HPM_P1;HPM_P2
2021/12/16 00:06:57;;;;;;;11.83;9.50;;;10.90;96.80;;;;;;963214;147;27368;-70
2021/12/16 00:09:00;;;;;;;13.17;10.10;;;10.90;96.80;;;;;;956256;147;27439;-71
2021/12/16 00:33:30;;;;;;;11.97;9.57;;;10.80;96.90;;;;;;947024;149;27898;-73
2021/12/16 00:35:43;;;;;;;10.97;8.97;;;10.80;96.90;;;;;;958120;147;27446;-70
2021/12/16 00:38:09;;;;;;;10.57;9.00;;;10.80;97.00;;;;;;959313;147;27379;-71
2021/12/16 00:40:40;;;;;;;12.37;9.17;;;10.80;97.10;;;;;;960512;149;27268;-71
2021/12/16 00:43:18;;;;;;;10.80;9.17;;;10.80;97.00;;;;;;967789;147;27255;-70
2021/12/16 00:45:46;;;;;;;11.50;9.50;;;10.80;97.00;;;;;;957310;147;27425;-71
2021/12/16 00:56:00;;;;;;;10.97;9.17;;;10.80;97.00;;;;;;964469;147;27442;-71
2021/12/16 00:58:34;;;;;;;12.80;9.53;;;10.80;97.00;;;;;;962060;147;27395;-71
2021/12/16 01:01:06;;;;;;;11.23;8.90;;;10.70;97.00;;;;;;951315;147;27305;-71
2021/12/16 01:03:31;;;;;;;12.80;9.43;;;10.70;97.00;;;;;;970651;147;27303;-71
2021/12/16 01:06:14;;;;;;;11.77;10.13;;;10.70;97.00;;;;;;953810;147;27313;-71
2021/12/16 01:08:41;;;;;;;11.77;9.67;;;10.70;96.90;;;;;;956213;147;27264;-71
2021/12/16 01:33:35;;;;;;;10.87;9.37;;;10.70;96.90;;;;;;955950;147;27437;-71
2021/12/16 01:35:42;;;;;;;11.00;9.80;;;10.60;97.20;;;;;;956611;147;27415;-70
2021/12/16 01:41:26;;;;;;;12.60;9.60;;;10.50;97.30;;;;;;963048;147;27940;-71
2021/12/16 01:46:34;;;;;;;12.90;9.77;;;10.60;97.40;;;;;;953929;147;27300;-71
2021/12/16 01:49:29;;;;;;;11.83;9.53;;;10.50;97.40;;;;;;955184;147;27342;-71
2021/12/16 01:51:24;;;;;;;10.93;9.30;;;10.50;97.30;;;;;;940990;149;27385;-71
2021/12/16 01:54:27;;;;;;;10.50;9.07;;;10.50;97.30;;;;;;956058;149;27435;-72
2021/12/16 01:56:38;;;;;;;12.13;9.80;;;10.50;97.30;;;;;;959464;146;28953;-72
2021/12/16 01:58:50;;;;;;;11.77;9.37;;;10.50;97.30;;;;;;963219;147;27828;-71
2021/12/16 02:01:29;;;;;;;13.10;10.07;;;10.60;97.30;;;;;;954544;149;27271;-72
2021/12/16 02:03:49;;;;;;;12.53;9.67;;;10.60;97.30;;;;;;959010;147;27355;-71
2021/12/16 02:08:45;;;;;;;11.17;9.97;;;10.60;97.20;;;;;;951616;147;27266;-71
2021/12/16 02:27:47;;;;;;;12.37;9.50;;;10.50;97.20;;;;;;950728;147;27331;-71
2021/12/16 02:35:43;;;;;;;11.97;9.73;;;10.40;97.20;;;;;;955746;149;27419;-70
2021/12/16 02:38:00;;;;;;;12.00;9.10;;;10.40;97.30;;;;;;957485;147;27348;-70
2021/12/16 02:40:25;;;;;;;11.57;10.07;;;10.40;97.30;;;;;;963945;147;27432;-70
2021/12/16 02:42:57;;;;;;;11.93;10.47;;;10.40;97.40;;;;;;957046;149;27353;-71
2021/12/16 02:50:48;;;;;;;10.77;9.50;;;10.40;97.40;;;;;;962216;147;27439;-70
2021/12/16 02:53:14;;;;;;;11.67;10.00;;;10.40;97.40;;;;;;966652;146;27250;-70
2021/12/16 02:55:41;;;;;;;13.87;9.50;;;10.40;97.40;;;;;;962785;147;27355;-70
2021/12/16 02:58:10;;;;;;;10.27;8.73;;;10.40;97.50;;;;;;961325;147;27215;-70
2021/12/16 03:00:38;;;;;;;11.87;9.87;;;10.40;97.40;;;;;;975213;147;27298;-70
2021/12/16 03:03:03;;;;;;;11.70;10.43;;;10.50;97.40;;;;;;959047;149;27444;-71
2021/12/16 03:05:30;;;;;;;12.60;9.43;;;10.50;97.40;;;;;;946616;151;27400;-70
2021/12/16 03:07:57;;;;;;;10.87;8.60;;;10.50;97.40;;;;;;972006;146;27259;-71
2021/12/16 03:13:05;;;;;;;10.53;9.43;;;10.50;97.30;;;;;;956085;149;27296;-70
2021/12/16 03:18:25;;;;;;;11.70;10.17;;;10.50;97.30;;;;;;944192;151;27282;-70
2021/12/16 03:20:49;;;;;;;11.83;9.63;;;10.50;97.20;;;;;;942624;151;27398;-71
2021/12/16 03:23:29;;;;;;;12.93;9.90;;;10.50;97.20;;;;;;960206;146;27292;-70
2021/12/16 03:36:27;;;;;;;13.10;9.67;;;10.40;97.20;;;;;;952191;149;27389;-73
2021/12/16 03:38:41;;;;;;;11.20;9.63;;;10.40;97.20;;;;;;950120;149;27338;-74
2021/12/16 03:41:08;;;;;;;11.13;9.53;;;10.40;97.20;;;;;;968478;147;27313;-74
2021/12/16 03:43:35;;;;;;;11.17;9.53;;;10.40;97.10;;;;;;967482;147;27278;-73
2021/12/16 03:48:54;;;;;;;10.40;9.20;;;10.40;97.20;;;;;;968532;147;27938;-74
2021/12/16 03:51:33;;;;;;;10.47;9.37;;;10.40;97.20;;;;;;976556;146;27313;-75
2021/12/16 03:54:02;;;;;;;11.63;9.23;;;10.40;97.20;;;;;;973680;146;27854;-76
2021/12/16 03:56:28;;;;;;;10.03;8.93;;;10.30;97.10;;;;;;972434;146;27442;-75
2021/12/16 03:58:55;;;;;;;11.90;9.73;;;10.30;97.20;;;;;;970311;146;27327;-75
2021/12/16 04:01:22;;;;;;;11.73;9.80;;;10.30;97.20;;;;;;975284;146;27352;-75
2021/12/16 04:03:50;;;;;;;11.73;9.63;;;10.30;97.30;;;;;;969572;146;27290;-75
2021/12/16 04:06:18;;;;;;;11.40;10.07;;;10.30;97.30;;;;;;970742;146;27305;-75
2021/12/16 04:08:44;;;;;;;12.83;10.47;;;10.30;97.50;;;;;;976331;143;27287;-75
2021/12/16 04:11:19;;;;;;;13.77;11.37;;;10.30;97.10;;;;;;971616;146;27299;-75
2021/12/16 04:13:57;;;;;;;14.20;10.53;;;10.30;97.10;;;;;;956690;148;27267;-75
2021/12/16 04:16:22;;;;;;;12.23;10.47;;;10.30;97.10;;;;;;961454;148;27418;-75
2021/12/16 04:18:48;;;;;;;12.83;9.70;;;10.30;97.10;;;;;;979460;146;27246;-75
2021/12/16 04:21:16;;;;;;;11.50;9.93;;;10.20;97.10;;;;;;976027;145;27263;-75
2021/12/16 04:23:42;;;;;;;10.87;9.07;;;10.20;97.10;;;;;;958149;148;27361;-75
2021/12/16 04:26:11;;;;;;;14.50;10.97;;;10.20;97.20;;;;;;974472;145;27292;-75
2021/12/16 04:28:38;;;;;;;19.93;12.20;;;10.20;97.20;;;;;;969627;147;27266;-75
2021/12/16 04:31:04;;;;;;;26.50;14.27;;;10.20;97.30;;;;;;946752;148;27418;-75
2021/12/16 04:33:31;;;;;;;13.97;10.47;;;10.20;97.40;;;;;;979657;144;27242;-75
2021/12/16 04:35:57;;;;;;;13.77;10.80;;;10.20;97.40;;;;;;975897;146;27292;-75
2021/12/16 04:38:24;;;;;;;13.27;10.47;;;10.20;97.50;;;;;;978854;146;27313;-75
2021/12/16 04:40:51;;;;;;;13.27;9.93;;;10.20;97.60;;;;;;974507;146;27344;-75
2021/12/16 04:43:21;;;;;;;13.40;9.73;;;10.20;97.60;;;;;;972704;146;27295;-75
2021/12/16 04:45:44;;;;;;;12.27;9.50;;;10.20;97.60;;;;;;957070;148;27374;-75
2021/12/16 04:48:10;;;;;;;12.00;10.67;;;10.20;97.70;;;;;;943637;149;27332;-75
2021/12/16 04:50:37;;;;;;;11.00;9.87;;;10.20;97.60;;;;;;954417;149;27377;-75
2021/12/16 04:53:04;;;;;;;13.00;10.13;;;10.20;97.60;;;;;;955792;149;27280;-75
2021/12/16 04:55:30;;;;;;;12.33;10.37;;;10.20;97.60;;;;;;961126;148;27351;-75
2021/12/16 04:57:57;;;;;;;11.83;9.63;;;10.20;97.90;;;;;;948755;149;27323;-75
2021/12/16 05:00:26;;;;;;;11.50;9.63;;;10.20;97.50;;;;;;952486;149;27787;-75
2021/12/16 05:02:52;;;;;;;13.30;10.60;;;10.20;97.30;;;;;;957258;150;27311;-75
2021/12/16 05:05:21;;;;;;;11.73;9.77;;;10.20;97.40;;;;;;958399;149;27276;-75
2021/12/16 05:07:47;;;;;;;12.60;11.30;;;10.30;97.50;;;;;;971066;146;27246;-75
2021/12/16 05:10:13;;;;;;;12.60;10.90;;;10.30;97.50;;;;;;935480;151;27429;-75
2021/12/16 05:12:39;;;;;;;11.73;9.60;;;10.30;97.50;;;;;;961590;149;27335;-75
2021/12/16 05:15:05;;;;;;;10.40;9.40;;;10.30;97.50;;;;;;954296;149;27267;-75
2021/12/16 05:17:39;;;;;;;13.60;10.77;;;10.30;97.50;;;;;;959396;147;27381;-75
2021/12/16 05:20:03;;;;;;;10.80;9.57;;;10.30;97.50;;;;;;939004;151;27379;-75
2021/12/16 05:25:17;;;;;;;11.83;9.80;;;10.30;97.40;;;;;;954539;149;27847;-75
2021/12/16 05:27:36;;;;;;;11.40;9.67;;;10.30;97.30;;;;;;959114;149;27294;-75
2021/12/16 05:30:03;;;;;;;14.00;9.57;;;10.30;97.30;;;;;;954998;147;27275;-75
2021/12/16 05:32:30;;;;;;;11.23;9.97;;;10.30;97.20;;;;;;928097;155;27440;-75
2021/12/16 05:34:56;;;;;;;10.97;9.63;;;10.30;97.20;;;;;;949444;149;27283;-75
2021/12/16 05:37:23;;;;;;;12.47;10.03;;;10.30;97.20;;;;;;930488;151;27337;-75
2021/12/16 05:39:49;;;;;;;13.17;10.67;;;10.30;97.50;;;;;;959885;149;27304;-75
2021/12/16 05:42:19;;;;;;;11.13;9.23;;;10.30;97.10;;;;;;958670;149;27335;-75
2021/12/16 05:44:45;;;;;;;11.60;9.97;;;10.30;97.10;;;;;;957364;149;27722;-75
2021/12/16 05:47:12;;;;;;;11.30;9.57;;;10.30;97.10;;;;;;954204;148;27408;-75
2021/12/16 05:49:39;;;;;;;12.13;10.17;;;10.30;97.20;;;;;;953105;149;27278;-75
2021/12/16 05:52:05;;;;;;;11.00;9.90;;;10.30;97.20;;;;;;949912;149;27420;-75
2021/12/16 05:54:32;;;;;;;12.37;9.50;;;10.20;97.20;;;;;;952717;148;27236;-75
2021/12/16 05:56:58;;;;;;;13.50;10.17;;;10.20;97.10;;;;;;929066;153;27427;-75
2021/12/16 05:59:25;;;;;;;11.43;9.77;;;10.20;96.80;;;;;;939575;150;27333;-75
2021/12/16 06:01:51;;;;;;;11.47;9.93;;;10.20;97.10;;;;;;937649;151;27299;-75
2021/12/16 06:04:21;;;;;;;16.93;14.83;;;10.20;97.10;;;;;;939689;151;27306;-75
2021/12/16 06:06:47;;;;;;;13.07;11.67;;;10.20;97.10;;;;;;928889;152;27946;-74
2021/12/16 06:09:14;;;;;;;12.60;9.57;;;10.20;97.10;;;;;;945488;149;27261;-74
2021/12/16 06:11:43;;;;;;;13.13;10.73;;;10.20;97.20;;;;;;945473;149;27388;-74
2021/12/16 06:14:21;;;;;;;14.40;10.53;;;10.20;97.20;;;;;;945237;149;27351;-75
2021/12/16 06:27:41;;;;;;;10.53;9.50;;;10.20;97.10;;;;;;956470;149;27332;-74
2021/12/16 06:30:07;;;;;;;9.47;8.53;;;10.10;97.10;;;;;;951633;149;27403;-74
2021/12/16 06:32:34;;;;;;;11.37;9.73;;;10.10;97.20;;;;;;949887;149;27315;-74
2021/12/16 06:35:01;;;;;;;11.20;9.93;;;10.10;97.20;;;;;;949853;149;27248;-74
2021/12/16 06:37:30;;;;;;;10.53;9.43;;;10.10;97.20;;;;;;951522;149;27360;-74
2021/12/16 06:39:57;;;;;;;11.40;9.87;;;10.10;97.30;;;;;;933713;151;27298;-74
2021/12/16 06:42:24;;;;;;;14.40;9.60;;;10.10;97.20;;;;;;937249;151;27324;-74
2021/12/16 06:44:54;;;;;;;11.17;9.43;;;10.10;97.20;;;;;;926863;153;27316;-74
2021/12/16 06:47:21;;;;;;;12.03;9.00;;;10.10;97.30;;;;;;942641;151;27375;-74
2021/12/16 06:49:45;;;;;;;10.80;9.00;;;10.10;97.30;;;;;;954977;148;27292;-74
2021/12/16 06:52:13;;;;;;;11.00;8.60;;;10.10;97.30;;;;;;958997;149;27235;-74
2021/12/16 06:54:51;;;;;;;11.60;8.67;;;10.10;97.40;;;;;;932383;152;27395;-74
2021/12/16 06:57:35;;;;;;;10.07;9.03;;;10.10;97.40;;;;;;932379;153;27455;-74
2021/12/16 06:59:33;;;;;;;9.73;8.73;;;10.10;97.40;;;;;;940776;151;27336;-74
2021/12/16 07:04:28;;;;;;;9.30;8.40;;;10.00;97.50;;;;;;957386;149;27332;-74
2021/12/16 07:06:55;;;;;;;10.50;9.37;;;10.00;97.50;;;;;;943825;150;27400;-74
2021/12/16 07:09:21;;;;;;;9.93;8.93;;;10.00;97.60;;;;;;933086;152;27396;-74
2021/12/16 07:11:49;;;;;;;10.60;9.50;;;10.00;97.60;;;;;;939458;149;27856;-74
2021/12/16 07:14:16;;;;;;;9.00;8.10;;;10.00;97.70;;;;;;936406;152;27429;-74
2021/12/16 07:16:41;;;;;;;10.20;9.20;;;10.10;97.70;;;;;;937720;149;27297;-74
2021/12/16 07:19:09;;;;;;;9.93;8.57;;;10.10;97.80;;;;;;944307;152;27625;-74
2021/12/16 07:21:37;;;;;;;10.70;8.93;;;10.10;97.80;;;;;;942685;152;27269;-74
2021/12/16 07:24:01;;;;;;;11.37;8.83;;;10.10;97.90;;;;;;949175;149;27358;-74
2021/12/16 07:26:28;;;;;;;9.70;8.40;;;10.10;97.90;;;;;;943838;152;27298;-74
2021/12/16 07:28:54;;;;;;;9.63;8.63;;;10.10;98.00;;;;;;944125;149;27701;-74
2021/12/16 07:31:21;;;;;;;9.13;8.23;;;10.10;97.90;;;;;;936578;153;27394;-74
2021/12/16 07:33:47;;;;;;;10.60;8.90;;;10.10;98.00;;;;;;943007;150;27444;-74
2021/12/16 07:36:18;;;;;;;12.17;9.40;;;10.20;98.00;;;;;;944431;151;27748;-74
2021/12/16 07:38:40;;;;;;;10.23;9.13;;;10.20;98.00;;;;;;951674;149;27256;-74
2021/12/16 07:41:07;;;;;;;12.30;9.83;;;10.20;98.00;;;;;;954292;149;27299;-74
2021/12/16 07:43:56;;;;;;;9.77;8.77;;;10.20;97.90;;;;;;938648;151;27302;-74
2021/12/16 07:46:09;;;;;;;11.80;8.43;;;10.20;97.90;;;;;;944704;149;27377;-73
2021/12/16 07:48:35;;;;;;;10.47;9.40;;;10.30;97.80;;;;;;938289;151;27503;-73
2021/12/16 07:51:02;;;;;;;11.67;9.03;;;10.30;97.80;;;;;;935429;150;27401;-73
2021/12/16 07:53:29;;;;;;;10.13;8.23;;;10.30;97.80;;;;;;947433;149;27314;-73
2021/12/16 07:55:55;;;;;;;9.87;8.40;;;10.30;97.80;;;;;;947726;149;27401;-73
2021/12/16 07:58:23;;;;;;;9.50;8.40;;;10.30;97.80;;;;;;952435;149;27725;-73
2021/12/16 08:00:48;;;;;;;9.63;8.63;;;10.30;97.80;;;;;;934262;152;27403;-73
2021/12/16 08:03:15;;;;;;;10.57;8.43;;;10.30;97.80;;;;;;962514;146;27295;-73
2021/12/16 08:05:43;;;;;;;11.30;8.90;;;10.30;97.90;;;;;;935972;152;27259;-73
2021/12/16 08:08:08;;;;;;;10.60;8.93;;;10.40;98.00;;;;;;941528;151;27391;-73
2021/12/16 08:10:35;;;;;;;9.00;8.10;;;10.40;98.00;;;;;;976566;146;27411;-73
2021/12/16 08:13:01;;;;;;;10.47;8.70;;;10.40;97.90;;;;;;960704;149;27282;-73
2021/12/16 08:15:28;;;;;;;9.87;8.70;;;10.50;97.80;;;;;;952444;149;27339;-73
2021/12/16 08:17:55;;;;;;;11.67;9.07;;;10.50;97.70;;;;;;939151;152;27452;-73
2021/12/16 08:20:21;;;;;;;11.93;9.70;;;10.50;97.50;;;;;;938455;152;27386;-73
2021/12/16 08:22:48;;;;;;;10.13;9.03;;;10.50;97.40;;;;;;947412;149;27271;-73
2021/12/16 08:25:14;;;;;;;10.27;8.73;;;10.50;97.20;;;;;;947695;151;27298;-73
2021/12/16 08:27:41;;;;;;;10.60;9.50;;;10.50;97.10;;;;;;932700;152;27314;-73
2021/12/16 08:30:07;;;;;;;10.83;8.80;;;10.50;97.20;;;;;;966569;147;27366;-73
2021/12/16 08:32:34;;;;;;;12.23;9.73;;;10.40;97.40;;;;;;964926;147;27234;-73
2021/12/16 08:35:01;;;;;;;11.47;9.10;;;10.50;97.60;;;;;;971989;147;27219;-73
2021/12/16 08:37:27;;;;;;;10.00;8.80;;;10.50;97.80;;;;;;975596;147;27302;-73
2021/12/16 08:39:54;;;;;;;10.00;9.00;;;10.50;97.90;;;;;;971142;147;27940;-73
2021/12/16 08:42:20;;;;;;;10.80;9.20;;;10.60;97.90;;;;;;967715;146;27328;-73
2021/12/16 08:44:47;;;;;;;9.73;8.60;;;10.60;97.80;;;;;;968118;146;27209;-73
2021/12/16 08:47:14;;;;;;;10.00;9.00;;;10.70;97.80;;;;;;960085;147;27289;-73
2021/12/16 08:49:40;;;;;;;10.33;8.90;;;10.70;97.80;;;;;;971602;146;27340;-73
2021/12/16 08:52:07;;;;;;;9.60;7.90;;;10.80;97.80;;;;;;976300;146;27238;-73
2021/12/16 08:54:33;;;;;;;9.57;8.57;;;10.90;97.90;;;;;;957924;148;27304;-73
2021/12/16 08:57:00;;;;;;;9.83;8.77;;;10.90;97.90;;;;;;936050;151;27446;-73
2021/12/16 08:59:26;;;;;;;9.67;8.67;;;11.00;97.90;;;;;;945998;151;27434;-73
2021/12/16 09:01:56;;;;;;;12.07;9.17;;;11.10;97.80;;;;;;966919;146;27257;-73
2021/12/16 09:04:23;;;;;;;8.63;7.70;;;11.10;97.70;;;;;;979268;146;27261;-74
2021/12/16 09:06:49;;;;;;;9.77;8.53;;;11.20;97.60;;;;;;958396;148;27334;-74
2021/12/16 09:09:16;;;;;;;9.70;8.03;;;11.20;97.50;;;;;;955089;148;27390;-74
2021/12/16 09:12:00;;;;;;;8.70;7.77;;;11.30;97.50;;;;;;944581;151;27433;-74
2021/12/16 09:14:09;;;;;;;9.10;8.20;;;11.30;97.40;;;;;;960339;148;27391;-74
2021/12/16 09:16:35;;;;;;;10.70;7.90;;;11.40;97.40;;;;;;944559;150;27415;-74
2021/12/16 09:19:02;;;;;;;8.90;7.80;;;11.40;97.40;;;;;;963583;148;27237;-74
2021/12/16 09:21:29;;;;;;;9.00;8.10;;;11.50;97.30;;;;;;953921;148;27345;-74
2021/12/16 09:23:55;;;;;;;9.40;8.07;;;11.50;97.30;;;;;;952583;151;27341;-73
2021/12/16 09:26:24;;;;;;;8.73;7.83;;;11.60;97.20;;;;;;942598;150;27294;-73
2021/12/16 09:28:51;;;;;;;9.67;8.03;;;11.60;97.30;;;;;;943901;150;27273;-73
2021/12/16 09:31:18;;;;;;;9.40;8.40;;;11.70;97.30;;;;;;947239;151;27337;-73
2021/12/16 09:33:44;;;;;;;13.50;8.27;;;11.80;97.50;;;;;;964977;149;27272;-73
2021/12/16 09:36:11;;;;;;;10.80;8.20;;;11.80;97.20;;;;;;969056;146;28635;-73
2021/12/16 09:38:37;;;;;;;9.03;8.13;;;11.90;97.20;;;;;;977961;146;27279;-74
2021/12/16 09:41:04;;;;;;;8.97;8.07;;;12.00;97.20;;;;;;959867;148;27310;-74
2021/12/16 09:43:31;;;;;;;11.00;8.30;;;12.10;97.20;;;;;;968398;148;27282;-74
2021/12/16 09:45:57;;;;;;;16.90;11.13;;;12.20;97.10;;;;;;966871;148;27325;-74
2021/12/16 09:48:24;;;;;;;9.03;8.13;;;12.20;97.00;;;;;;965245;148;27344;-74
2021/12/16 09:50:50;;;;;;;8.90;8.00;;;12.30;96.80;;;;;;947092;148;27350;-74
2021/12/16 09:53:17;;;;;;;10.10;9.10;;;12.40;96.60;;;;;;944033;149;27344;-74
2021/12/16 09:55:46;;;;;;;9.97;8.83;;;12.50;96.30;;;;;;942328;150;27323;-74
2021/12/16 09:58:10;;;;;;;9.30;8.40;;;12.50;96.10;;;;;;936451;152;27412;-74
2021/12/16 10:00:37;;;;;;;9.33;8.33;;;12.60;95.90;;;;;;951802;150;27275;-74
2021/12/16 10:03:03;;;;;;;9.70;7.90;;;12.60;95.70;;;;;;944144;149;27356;-74
2021/12/16 10:05:31;;;;;;;9.20;8.30;;;12.70;95.70;;;;;;938126;150;27405;-74
2021/12/16 10:08:01;;;;;;;11.20;8.73;;;12.80;95.40;;;;;;934533;151;27356;-74
2021/12/16 10:10:26;;;;;;;9.37;8.23;;;12.90;95.10;;;;;;935422;151;27331;-74
2021/12/16 10:12:54;;;;;;;8.20;7.40;;;12.90;94.70;;;;;;947194;150;27441;-74
2021/12/16 10:18:06;;;;;;;8.30;7.40;;;13.00;94.20;;;;;;933373;152;27403;-74
2021/12/16 10:20:36;;;;;;;8.80;7.97;;;13.00;94.20;;;;;;947768;149;27316;-74
2021/12/16 10:23:02;;;;;;;10.60;7.90;;;13.00;94.10;;;;;;950691;150;27279;-74
2021/12/16 10:25:32;;;;;;;9.00;7.77;;;13.00;94.10;;;;;;953558;149;27335;-74
2021/12/16 10:28:01;;;;;;;9.30;8.30;;;13.00;94.10;;;;;;937562;152;27296;-74
2021/12/16 10:30:42;;;;;;;9.10;8.20;;;13.00;94.00;;;;;;935509;152;27403;-74
2021/12/16 10:33:15;;;;;;;10.20;7.43;;;13.10;94.00;;;;;;934187;151;27376;-74
2021/12/16 10:35:41;;;;;;;9.00;7.73;;;13.10;94.10;;;;;;940552;152;27289;-74
2021/12/16 10:38:08;;;;;;;8.47;7.57;;;13.20;94.30;;;;;;936320;152;27393;-74
2021/12/16 10:40:43;;;;;;;8.73;7.60;;;13.30;94.40;;;;;;930177;152;27413;-74
2021/12/16 10:43:12;;;;;;;9.33;7.70;;;13.40;94.20;;;;;;939792;150;27388;-74
2021/12/16 10:45:45;;;;;;;9.08;7.72;;;13.50;94.00;;;;;;949780;148;27350;-74
2021/12/16 10:48:17;;;;;;;8.25;7.45;;;13.60;93.70;;;;;;942749;152;27411;-74
2021/12/16 10:51:08;;;;;;;9.00;8.10;;;13.60;93.40;;;;;;941923;149;27435;-74
2021/12/16 10:53:53;;;;;;;8.23;7.53;;;13.70;93.20;;;;;;954255;149;27279;-74
2021/12/16 10:56:20;;;;;;;9.33;8.03;;;13.70;92.80;;;;;;952349;149;27664;-74
2021/12/16 10:58:46;;;;;;;8.40;7.43;;;13.70;92.50;;;;;;958509;149;27298;-74
2021/12/16 11:01:38;;;;;;;8.27;7.47;;;13.70;92.30;;;;;;949449;146;27244;-74
2021/12/16 11:04:04;;;;;;;9.00;7.93;;;13.70;92.10;;;;;;938571;151;27377;-74
2021/12/16 11:06:31;;;;;;;8.15;7.35;;;13.70;91.90;;;;;;955533;148;27876;-74
2021/12/16 11:09:28;;;;;;;9.93;7.90;;;13.70;91.60;;;;;;977407;146;27226;-74
2021/12/16 11:12:13;;;;;;;8.97;8.10;;;13.70;91.60;;;;;;963013;147;27285;-74
2021/12/16 11:14:40;;;;;;;9.23;8.10;;;13.70;91.70;;;;;;969661;147;27742;-74
2021/12/16 11:17:07;;;;;;;8.77;7.83;;;13.70;91.70;;;;;;962438;145;27289;-74
2021/12/16 11:19:42;;;;;;;8.63;7.83;;;13.70;91.70;;;;;;962143;149;27821;-74
2021/12/16 11:22:08;;;;;;;8.73;7.57;;;13.70;91.80;;;;;;963448;149;27299;-74
2021/12/16 11:24:35;;;;;;;9.37;8.37;;;13.80;91.80;;;;;;953143;149;27424;-74
2021/12/16 11:27:14;;;;;;;9.23;8.30;;;13.80;91.70;;;;;;956660;149;27349;-74
2021/12/16 11:29:40;;;;;;;8.70;7.83;;;13.80;91.50;;;;;;940643;149;27401;-74
2021/12/16 11:32:07;;;;;;;8.97;8.03;;;13.80;91.40;;;;;;937724;152;27427;-74
2021/12/16 11:34:33;;;;;;;9.77;7.67;;;13.90;91.30;;;;;;974360;147;27278;-74
2021/12/16 11:37:00;;;;;;;10.43;8.00;;;13.90;91.00;;;;;;969617;147;27772;-74
2021/12/16 11:39:29;;;;;;;8.98;8.05;;;13.90;90.90;;;;;;959871;146;27313;-74
2021/12/16 11:41:53;;;;;;;9.23;8.40;;;13.90;90.80;;;;;;967120;146;27286;-74
2021/12/16 11:44:22;;;;;;;8.87;7.90;;;13.90;90.70;;;;;;961981;149;27380;-74
2021/12/16 11:46:52;;;;;;;8.97;8.00;;;13.90;90.70;;;;;;962353;147;27322;-74
2021/12/16 11:49:37;;;;;;;9.23;8.30;;;13.90;90.70;;;;;;962935;149;27246;-74
2021/12/16 11:52:03;;;;;;;10.67;8.47;;;13.90;90.60;;;;;;961067;147;28713;-75
2021/12/16 11:54:38;;;;;;;9.47;8.47;;;13.90;90.60;;;;;;959441;147;27306;-75
2021/12/16 11:57:11;;;;;;;9.10;8.15;;;13.90;90.50;;;;;;957531;149;27403;-74
2021/12/16 11:59:46;;;;;;;9.20;8.20;;;13.90;90.50;;;;;;963073;147;27258;-74
2021/12/16 12:02:24;;;;;;;12.50;8.60;;;13.90;90.40;;;;;;961894;147;27277;-74
2021/12/16 12:04:50;;;;;;;10.93;8.28;;;13.90;90.40;;;;;;957611;149;27298;-74
2021/12/16 12:07:19;;;;;;;9.03;7.90;;;13.90;90.30;;;;;;959882;147;27301;-74
2021/12/16 12:09:46;;;;;;;9.93;8.87;;;13.90;90.60;;;;;;960443;149;27669;-74
2021/12/16 12:12:15;;;;;;;11.43;10.25;;;13.90;90.20;;;;;;952388;149;27349;-74
2021/12/16 12:14:42;;;;;;;12.47;10.73;;;13.90;90.10;;;;;;928149;155;27330;-74
2021/12/16 12:17:11;;;;;;;12.10;9.73;;;13.90;90.10;;;;;;944714;151;27331;-74
2021/12/16 12:19:40;;;;;;;9.87;8.87;;;13.90;89.90;;;;;;939402;151;27383;-74
2021/12/16 12:22:07;;;;;;;9.70;8.75;;;13.90;89.90;;;;;;934147;152;27332;-74
2021/12/16 12:24:40;;;;;;;9.07;8.10;;;13.90;89.70;;;;;;940916;151;27321;-74
2021/12/16 12:27:09;;;;;;;8.87;7.97;;;13.90;89.60;;;;;;951815;149;27352;-74
2021/12/16 12:29:33;;;;;;;9.73;8.73;;;13.90;89.40;;;;;;961688;147;27355;-74
2021/12/16 12:32:18;;;;;;;8.80;7.90;;;13.90;89.20;;;;;;958027;148;27327;-74
2021/12/16 12:34:44;;;;;;;8.50;7.70;;;13.90;89.40;;;;;;951640;149;27317;-74
2021/12/16 12:37:11;;;;;;;9.70;8.35;;;13.90;89.70;;;;;;958117;147;27385;-74
2021/12/16 12:39:42;;;;;;;9.60;8.70;;;13.90;89.80;;;;;;959906;147;27374;-74
2021/12/16 12:42:07;;;;;;;9.23;8.33;;;13.90;89.70;;;;;;962454;146;27396;-74
2021/12/16 12:44:34;;;;;;;9.80;8.60;;;13.90;89.60;;;;;;962654;149;27318;-74
2021/12/16 12:47:00;;;;;;;9.50;8.30;;;14.00;89.70;;;;;;963360;147;27342;-74
2021/12/16 12:49:27;;;;;;;10.03;8.83;;;14.00;89.70;;;;;;956546;149;27339;-74
2021/12/16 12:51:53;;;;;;;8.90;7.60;;;14.00;89.70;;;;;;951277;148;27443;-74
2021/12/16 12:54:23;;;;;;;9.33;7.83;;;14.10;89.70;;;;;;927670;152;27362;-74
2021/12/16 12:56:49;;;;;;;8.30;7.35;;;14.10;89.70;;;;;;946986;150;27295;-74
2021/12/16 12:59:16;;;;;;;10.67;7.93;;;14.10;89.40;;;;;;952129;148;27311;-74
2021/12/16 13:01:44;;;;;;;8.47;7.60;;;14.20;89.50;;;;;;953901;149;27403;-74
2021/12/16 13:04:30;;;;;;;8.25;7.42;;;14.20;89.30;;;;;;947869;149;27347;-74
2021/12/16 13:06:57;;;;;;;8.15;7.17;;;14.20;89.10;;;;;;935440;152;27286;-74
2021/12/16 13:09:24;;;;;;;9.08;7.35;;;14.20;89.00;;;;;;957642;149;27270;-74
2021/12/16 13:11:50;;;;;;;10.15;7.95;;;14.20;88.70;;;;;;941722;149;27432;-74
2021/12/16 13:14:30;;;;;;;8.80;7.65;;;14.30;88.50;;;;;;943210;152;27301;-74
2021/12/16 13:28:04;;;;;;;7.87;7.10;;;14.20;87.20;;;;;;945730;151;27335;-74
2021/12/16 13:30:31;;;;;;;9.97;7.73;;;14.20;87.20;;;;;;945887;151;27329;-74
2021/12/16 13:33:09;;;;;;;7.92;7.17;;;14.20;87.20;;;;;;939088;151;27462;-74
2021/12/16 13:35:37;;;;;;;9.33;7.30;;;14.10;87.10;;;;;;945925;151;27345;-74
2021/12/16 13:38:03;;;;;;;9.37;7.57;;;14.10;87.10;;;;;;940095;151;27780;-74
2021/12/16 13:40:27;;;;;;;9.05;7.47;;;14.10;86.80;;;;;;943360;151;27371;-74
2021/12/16 13:42:58;;;;;;;9.13;8.17;;;14.00;87.20;;;;;;936312;151;28014;-74
2021/12/16 13:45:30;;;;;;;8.70;7.80;;;14.00;87.20;;;;;;932224;153;27458;-74
2021/12/16 13:48:06;;;;;;;9.43;7.70;;;14.00;87.30;;;;;;927660;152;27327;-74
2021/12/16 14:01:50;;;;;;;9.17;8.17;;;13.90;87.00;;;;;;960157;149;27306;-74
2021/12/16 14:06:37;;;;;;;8.10;7.30;;;13.90;86.80;;;;;;929345;151;27275;-74
2021/12/16 14:09:13;;;;;;;9.77;8.40;;;13.80;86.70;;;;;;928788;153;27209;-74
2021/12/16 14:12:31;;;;;;;8.60;7.80;;;13.80;86.60;;;;;;927094;154;27250;-74
2021/12/16 14:16:53;;;;;;;8.70;7.80;;;13.70;86.40;;;;;;953922;149;27285;-74
2021/12/16 14:31:06;;;;;;;11.40;7.93;;;13.50;86.70;;;;;;946805;151;27364;-74
2021/12/16 14:35:20;;;;;;;8.80;7.90;;;13.40;87.10;;;;;;954649;148;27399;-74
2021/12/16 14:37:33;;;;;;;10.40;9.33;;;13.30;87.10;;;;;;955986;148;27339;-74
2021/12/16 14:42:40;;;;;;;9.00;7.93;;;13.20;87.30;;;;;;957202;148;27577;-74
2021/12/16 14:50:22;;;;;;;11.87;9.67;;;13.10;87.70;;;;;;954103;149;27315;-74
2021/12/16 14:52:48;;;;;;;12.10;9.73;;;13.10;87.80;;;;;;963149;147;27343;-74
2021/12/16 14:55:15;;;;;;;10.40;9.10;;;13.00;88.00;;;;;;964295;147;27398;-74
2021/12/16 14:57:41;;;;;;;12.83;9.73;;;13.00;88.10;;;;;;967429;147;27411;-74
2021/12/16 15:00:14;;;;;;;10.87;9.03;;;12.90;88.20;;;;;;959909;149;27358;-74
2021/12/16 15:02:42;;;;;;;11.20;9.50;;;12.90;88.50;;;;;;956912;147;27284;-74
2021/12/16 15:05:29;;;;;;;9.40;8.10;;;12.90;88.50;;;;;;965702;147;27256;-74
2021/12/16 15:07:55;;;;;;;11.27;9.20;;;12.80;88.50;;;;;;970819;147;27303;-74
2021/12/16 15:10:23;;;;;;;10.13;9.10;;;12.80;88.50;;;;;;959522;147;27331;-74
2021/12/16 15:12:56;;;;;;;11.87;9.33;;;12.80;88.70;;;;;;959885;147;27296;-74
2021/12/16 15:15:32;;;;;;;11.23;8.93;;;12.80;88.80;;;;;;952014;149;27280;-74
2021/12/16 15:37:12;;;;;;;12.30;9.50;;;12.50;89.20;;;;;;964113;147;27835;-75
2021/12/16 15:44:46;;;;;;;11.30;9.50;;;12.30;89.60;;;;;;969624;147;27310;-74
2021/12/16 15:47:13;;;;;;;11.10;9.27;;;12.30;89.80;;;;;;971091;147;27274;-74
2021/12/16 15:49:39;;;;;;;9.30;8.33;;;12.30;90.00;;;;;;960824;148;27304;-74
2021/12/16 15:52:06;;;;;;;11.23;10.00;;;12.30;90.10;;;;;;958782;147;27294;-74
2021/12/16 15:54:35;;;;;;;13.13;9.23;;;12.30;90.10;;;;;;974605;146;27651;-74
2021/12/16 15:57:02;;;;;;;10.70;8.80;;;12.30;90.20;;;;;;976636;143;27327;-74
2021/12/16 15:59:29;;;;;;;10.57;9.47;;;12.30;90.30;;;;;;980117;145;27288;-74
2021/12/16 16:01:55;;;;;;;11.23;9.00;;;12.30;90.30;;;;;;978217;145;27266;-75
2021/12/16 16:04:21;;;;;;;12.63;9.80;;;12.30;90.30;;;;;;984313;143;27316;-75
2021/12/16 16:06:48;;;;;;;10.60;9.20;;;12.30;90.40;;;;;;977216;145;27409;-74
2021/12/16 16:09:15;;;;;;;10.53;9.43;;;12.30;90.40;;;;;;983365;145;27228;-75